sensor_id;sensor_type;location;lat;lon;timestamp;temperature;humidity
20487;DHT22;10402;49.012;8.370;2022-07-18T00:02:05;21.80;42.40
20487;DHT22;10402;49.012;8.370;2022-07-18T00:04:31;21.70;42.80
20487;DHT22;10402;49.012;8.370;2022-07-18T00:06:57;21.60;43.00
20487;DHT22;10402;49.012;8.370;2022-07-18T00:09:22;21.50;43.20
20487;DHT22;10402;49.012;8.370;2022-07-18T00:11:52;21.50;43.40
20487;DHT22;10402;49.012;8.370;2022-07-18T00:14:19;21.50;43.50
20487;DHT22;10402;49.012;8.370;2022-07-18T00:16:45;21.40;43.60
20487;DHT22;10402;49.012;8.370;2022-07-18T00:19:11;21.40;43.80
20487;DHT22;10402;49.012;8.370;2022-07-18T00:21:37;21.30;43.90
20487;DHT22;10402;49.012;8.370;2022-07-18T00:24:03;21.30;44.10
20487;DHT22;10402;49.012;8.370;2022-07-18T00:26:28;21.30;44.30
20487;DHT22;10402;49.012;8.370;2022-07-18T00:28:54;21.20;44.40
20487;DHT22;10402;49.012;8.370;2022-07-18T00:31:19;21.20;44.40
20487;DHT22;10402;49.012;8.370;2022-07-18T00:33:45;21.20;44.60
20487;DHT22;10402;49.012;8.370;2022-07-18T00:36:11;21.10;44.60
20487;DHT22;10402;49.012;8.370;2022-07-18T00:38:37;21.10;44.70
20487;DHT22;10402;49.012;8.370;2022-07-18T00:41:02;21.00;44.90
20487;DHT22;10402;49.012;8.370;2022-07-18T00:43:28;21.00;45.00
20487;DHT22;10402;49.012;8.370;2022-07-18T00:45:54;21.00;45.00
20487;DHT22;10402;49.012;8.370;2022-07-18T00:48:20;20.90;45.20
20487;DHT22;10402;49.012;8.370;2022-07-18T00:50:45;20.80;45.20
20487;DHT22;10402;49.012;8.370;2022-07-18T00:53:12;20.80;45.30
20487;DHT22;10402;49.012;8.370;2022-07-18T00:55:39;20.70;45.30
20487;DHT22;10402;49.012;8.370;2022-07-18T00:58:04;20.70;45.50
20487;DHT22;10402;49.012;8.370;2022-07-18T01:00:30;20.60;45.60
20487;DHT22;10402;49.012;8.370;2022-07-18T01:03:14;20.60;45.70
20487;DHT22;10402;49.012;8.370;2022-07-18T01:05:40;20.60;45.80
20487;DHT22;10402;49.012;8.370;2022-07-18T01:08:06;20.50;45.80
20487;DHT22;10402;49.012;8.370;2022-07-18T01:10:31;20.50;45.90
20487;DHT22;10402;49.012;8.370;2022-07-18T01:12:57;20.40;46.10
20487;DHT22;10402;49.012;8.370;2022-07-18T01:15:23;20.30;46.10
20487;DHT22;10402;49.012;8.370;2022-07-18T01:17:48;20.30;46.30
20487;DHT22;10402;49.012;8.370;2022-07-18T01:22:42;20.10;46.50
20487;DHT22;10402;49.012;8.370;2022-07-18T01:25:09;20.10;46.60
20487;DHT22;10402;49.012;8.370;2022-07-18T01:27:35;20.10;46.60
20487;DHT22;10402;49.012;8.370;2022-07-18T01:30:01;20.10;46.70
20487;DHT22;10402;49.012;8.370;2022-07-18T01:32:27;20.10;46.80
20487;DHT22;10402;49.012;8.370;2022-07-18T01:34:52;20.10;46.90
20487;DHT22;10402;49.012;8.370;2022-07-18T01:37:18;20.10;46.90
20487;DHT22;10402;49.012;8.370;2022-07-18T01:39:44;20.00;46.90
20487;DHT22;10402;49.012;8.370;2022-07-18T01:42:11;20.00;47.00
20487;DHT22;10402;49.012;8.370;2022-07-18T01:44:38;20.00;47.10
20487;DHT22;10402;49.012;8.370;2022-07-18T01:47:06;20.00;47.20
20487;DHT22;10402;49.012;8.370;2022-07-18T01:49:32;19.90;47.10
20487;DHT22;10402;49.012;8.370;2022-07-18T01:51:59;19.90;47.30
20487;DHT22;10402;49.012;8.370;2022-07-18T01:54:29;19.90;47.40
20487;DHT22;10402;49.012;8.370;2022-07-18T01:56:55;19.80;47.50
20487;DHT22;10402;49.012;8.370;2022-07-18T01:59:21;19.80;47.60
20487;DHT22;10402;49.012;8.370;2022-07-18T02:01:47;19.70;47.60
20487;DHT22;10402;49.012;8.370;2022-07-18T02:04:13;19.70;47.80
20487;DHT22;10402;49.012;8.370;2022-07-18T02:06:38;19.60;47.80
20487;DHT22;10402;49.012;8.370;2022-07-18T02:09:05;19.60;47.90
20487;DHT22;10402;49.012;8.370;2022-07-18T02:11:32;19.60;47.80
20487;DHT22;10402;49.012;8.370;2022-07-18T02:13:57;19.60;47.80
20487;DHT22;10402;49.012;8.370;2022-07-18T02:16:23;19.60;47.90
20487;DHT22;10402;49.012;8.370;2022-07-18T02:18:48;19.50;47.90
20487;DHT22;10402;49.012;8.370;2022-07-18T02:21:14;19.50;47.90
20487;DHT22;10402;49.012;8.370;2022-07-18T02:23:42;19.50;48.00
20487;DHT22;10402;49.012;8.370;2022-07-18T02:26:08;19.50;48.10
20487;DHT22;10402;49.012;8.370;2022-07-18T02:28:33;19.40;48.70
20487;DHT22;10402;49.012;8.370;2022-07-18T02:30:59;19.30;48.30
20487;DHT22;10402;49.012;8.370;2022-07-18T02:33:24;19.30;48.40
20487;DHT22;10402;49.012;8.370;2022-07-18T02:35:50;19.30;48.30
20487;DHT22;10402;49.012;8.370;2022-07-18T02:38:16;19.20;48.40
20487;DHT22;10402;49.012;8.370;2022-07-18T02:40:41;19.10;48.50
20487;DHT22;10402;49.012;8.370;2022-07-18T02:43:07;19.10;48.70
20487;DHT22;10402;49.012;8.370;2022-07-18T02:45:33;19.00;48.80
20487;DHT22;10402;49.012;8.370;2022-07-18T02:47:59;19.00;48.90
20487;DHT22;10402;49.012;8.370;2022-07-18T02:50:24;18.90;48.90
20487;DHT22;10402;49.012;8.370;2022-07-18T02:52:50;19.00;49.00
20487;DHT22;10402;49.012;8.370;2022-07-18T02:55:15;19.00;48.90
20487;DHT22;10402;49.012;8.370;2022-07-18T02:57:41;19.00;48.90
20487;DHT22;10402;49.012;8.370;2022-07-18T03:00:10;19.00;48.90
20487;DHT22;10402;49.012;8.370;2022-07-18T03:02:37;18.90;48.90
20487;DHT22;10402;49.012;8.370;2022-07-18T03:05:04;18.90;49.10
20487;DHT22;10402;49.012;8.370;2022-07-18T03:07:30;18.80;49.10
20487;DHT22;10402;49.012;8.370;2022-07-18T03:09:55;18.80;49.20
20487;DHT22;10402;49.012;8.370;2022-07-18T03:12:21;18.70;49.20
20487;DHT22;10402;49.012;8.370;2022-07-18T03:14:47;18.80;49.30
20487;DHT22;10402;49.012;8.370;2022-07-18T03:17:12;18.80;49.20
20487;DHT22;10402;49.012;8.370;2022-07-18T03:19:38;18.80;49.30
20487;DHT22;10402;49.012;8.370;2022-07-18T03:22:04;18.80;49.20
20487;DHT22;10402;49.012;8.370;2022-07-18T03:24:30;18.80;49.20
20487;DHT22;10402;49.012;8.370;2022-07-18T03:26:56;18.70;49.30
20487;DHT22;10402;49.012;8.370;2022-07-18T03:29:22;18.70;49.40
20487;DHT22;10402;49.012;8.370;2022-07-18T03:31:48;18.70;49.50
20487;DHT22;10402;49.012;8.370;2022-07-18T03:34:13;18.70;49.50
20487;DHT22;10402;49.012;8.370;2022-07-18T03:36:39;18.70;49.50
20487;DHT22;10402;49.012;8.370;2022-07-18T03:39:05;18.70;49.40
20487;DHT22;10402;49.012;8.370;2022-07-18T03:41:31;18.70;49.50
20487;DHT22;10402;49.012;8.370;2022-07-18T03:43:57;18.60;49.70
20487;DHT22;10402;49.012;8.370;2022-07-18T03:46:23;18.60;49.70
20487;DHT22;10402;49.012;8.370;2022-07-18T03:48:48;18.50;49.60
20487;DHT22;10402;49.012;8.370;2022-07-18T03:51:14;18.50;49.80
20487;DHT22;10402;49.012;8.370;2022-07-18T03:53:40;18.40;50.00
20487;DHT22;10402;49.012;8.370;2022-07-18T03:56:06;18.40;50.10
20487;DHT22;10402;49.012;8.370;2022-07-18T03:58:31;18.40;50.20
20487;DHT22;10402;49.012;8.370;2022-07-18T04:00:57;18.30;50.10
20487;DHT22;10402;49.012;8.370;2022-07-18T04:03:23;18.30;50.20
20487;DHT22;10402;49.012;8.370;2022-07-18T04:05:48;18.30;50.10
20487;DHT22;10402;49.012;8.370;2022-07-18T04:08:14;18.40;50.20
20487;DHT22;10402;49.012;8.370;2022-07-18T04:10:40;18.40;50.00
20487;DHT22;10402;49.012;8.370;2022-07-18T04:13:07;18.40;50.20
20487;DHT22;10402;49.012;8.370;2022-07-18T04:15:33;18.30;50.10
20487;DHT22;10402;49.012;8.370;2022-07-18T04:17:58;18.30;50.20
20487;DHT22;10402;49.012;8.370;2022-07-18T04:20:24;18.20;50.20
20487;DHT22;10402;49.012;8.370;2022-07-18T04:22:52;18.20;50.40
20487;DHT22;10402;49.012;8.370;2022-07-18T04:25:19;18.20;50.50
20487;DHT22;10402;49.012;8.370;2022-07-18T04:27:46;18.10;50.50
20487;DHT22;10402;49.012;8.370;2022-07-18T04:30:13;18.20;50.50
20487;DHT22;10402;49.012;8.370;2022-07-18T04:32:39;18.20;50.40
20487;DHT22;10402;49.012;8.370;2022-07-18T04:35:06;18.30;50.40
20487;DHT22;10402;49.012;8.370;2022-07-18T04:37:31;18.20;50.40
20487;DHT22;10402;49.012;8.370;2022-07-18T04:39:58;18.20;50.40
20487;DHT22;10402;49.012;8.370;2022-07-18T04:42:24;18.30;50.50
20487;DHT22;10402;49.012;8.370;2022-07-18T04:44:50;18.30;50.40
20487;DHT22;10402;49.012;8.370;2022-07-18T04:47:15;18.40;50.40
20487;DHT22;10402;49.012;8.370;2022-07-18T04:49:41;18.40;50.50
20487;DHT22;10402;49.012;8.370;2022-07-18T04:52:06;18.40;50.50
20487;DHT22;10402;49.012;8.370;2022-07-18T04:54:32;18.40;50.60
20487;DHT22;10402;49.012;8.370;2022-07-18T04:56:57;18.40;50.60
20487;DHT22;10402;49.012;8.370;2022-07-18T04:59:23;18.40;50.60
20487;DHT22;10402;49.012;8.370;2022-07-18T05:01:48;18.40;51.20
20487;DHT22;10402;49.012;8.370;2022-07-18T05:04:14;18.50;50.60
20487;DHT22;10402;49.012;8.370;2022-07-18T05:06:39;18.50;50.60
20487;DHT22;10402;49.012;8.370;2022-07-18T05:09:05;18.60;50.70
20487;DHT22;10402;49.012;8.370;2022-07-18T05:11:30;18.60;50.70
20487;DHT22;10402;49.012;8.370;2022-07-18T05:13:56;18.70;50.70
20487;DHT22;10402;49.012;8.370;2022-07-18T05:16:21;18.70;50.60
20487;DHT22;10402;49.012;8.370;2022-07-18T05:18:47;18.80;50.60
20487;DHT22;10402;49.012;8.370;2022-07-18T05:21:12;18.80;50.60
20487;DHT22;10402;49.012;8.370;2022-07-18T05:23:38;18.90;50.70
20487;DHT22;10402;49.012;8.370;2022-07-18T05:26:03;18.80;50.70
20487;DHT22;10402;49.012;8.370;2022-07-18T05:28:29;18.80;50.70
20487;DHT22;10402;49.012;8.370;2022-07-18T05:30:55;18.90;50.80
20487;DHT22;10402;49.012;8.370;2022-07-18T05:33:21;18.90;50.90
20487;DHT22;10402;49.012;8.370;2022-07-18T05:35:46;18.90;50.80
20487;DHT22;10402;49.012;8.370;2022-07-18T05:38:12;19.00;50.90
20487;DHT22;10402;49.012;8.370;2022-07-18T05:40:38;19.00;50.90
20487;DHT22;10402;49.012;8.370;2022-07-18T05:43:03;19.10;50.90
20487;DHT22;10402;49.012;8.370;2022-07-18T05:45:29;19.10;50.90
20487;DHT22;10402;49.012;8.370;2022-07-18T05:47:55;19.20;51.00
20487;DHT22;10402;49.012;8.370;2022-07-18T05:50:21;19.20;50.90
20487;DHT22;10402;49.012;8.370;2022-07-18T05:52:47;19.30;51.00
20487;DHT22;10402;49.012;8.370;2022-07-18T05:55:13;19.40;50.80
20487;DHT22;10402;49.012;8.370;2022-07-18T05:57:39;19.50;50.80
20487;DHT22;10402;49.012;8.370;2022-07-18T06:00:07;19.60;50.50
20487;DHT22;10402;49.012;8.370;2022-07-18T06:02:34;19.70;50.50
20487;DHT22;10402;49.012;8.370;2022-07-18T06:04:59;19.90;50.20
20487;DHT22;10402;49.012;8.370;2022-07-18T06:07:25;20.00;50.00
20487;DHT22;10402;49.012;8.370;2022-07-18T06:09:51;20.10;49.80
20487;DHT22;10402;49.012;8.370;2022-07-18T06:12:17;20.10;49.70
20487;DHT22;10402;49.012;8.370;2022-07-18T06:14:42;20.20;49.70
20487;DHT22;10402;49.012;8.370;2022-07-18T06:17:08;20.20;49.60
20487;DHT22;10402;49.012;8.370;2022-07-18T06:19:34;20.30;50.20
20487;DHT22;10402;49.012;8.370;2022-07-18T06:21:59;20.30;49.50
20487;DHT22;10402;49.012;8.370;2022-07-18T06:24:25;20.40;49.50
20487;DHT22;10402;49.012;8.370;2022-07-18T06:26:51;20.50;49.50
20487;DHT22;10402;49.012;8.370;2022-07-18T06:29:16;20.50;49.30
20487;DHT22;10402;49.012;8.370;2022-07-18T06:31:42;20.60;49.30
20487;DHT22;10402;49.012;8.370;2022-07-18T06:34:08;20.60;49.00
20487;DHT22;10402;49.012;8.370;2022-07-18T06:36:34;20.70;49.00
20487;DHT22;10402;49.012;8.370;2022-07-18T06:38:59;20.80;48.90
20487;DHT22;10402;49.012;8.370;2022-07-18T06:41:25;20.90;48.80
20487;DHT22;10402;49.012;8.370;2022-07-18T06:43:50;20.90;48.70
20487;DHT22;10402;49.012;8.370;2022-07-18T06:46:16;21.00;48.60
20487;DHT22;10402;49.012;8.370;2022-07-18T06:48:41;21.00;48.40
20487;DHT22;10402;49.012;8.370;2022-07-18T06:51:07;21.10;48.40
20487;DHT22;10402;49.012;8.370;2022-07-18T06:53:33;21.20;48.30
20487;DHT22;10402;49.012;8.370;2022-07-18T06:55:59;21.20;48.20
20487;DHT22;10402;49.012;8.370;2022-07-18T06:58:28;21.30;48.20
20487;DHT22;10402;49.012;8.370;2022-07-18T07:00:56;21.30;48.10
20487;DHT22;10402;49.012;8.370;2022-07-18T07:03:21;21.40;48.00
20487;DHT22;10402;49.012;8.370;2022-07-18T07:05:47;21.40;48.00
20487;DHT22;10402;49.012;8.370;2022-07-18T07:08:12;21.50;48.00
20487;DHT22;10402;49.012;8.370;2022-07-18T07:10:39;21.40;47.80
20487;DHT22;10402;49.012;8.370;2022-07-18T07:13:04;21.50;47.90
20487;DHT22;10402;49.012;8.370;2022-07-18T07:15:30;21.60;47.80
20487;DHT22;10402;49.012;8.370;2022-07-18T07:17:55;21.70;47.70
20487;DHT22;10402;49.012;8.370;2022-07-18T07:20:21;21.70;47.60
20487;DHT22;10402;49.012;8.370;2022-07-18T07:22:55;21.70;47.40
20487;DHT22;10402;49.012;8.370;2022-07-18T07:25:23;21.80;47.30
20487;DHT22;10402;49.012;8.370;2022-07-18T07:27:49;21.90;47.40
20487;DHT22;10402;49.012;8.370;2022-07-18T07:30:15;21.90;47.20
20487;DHT22;10402;49.012;8.370;2022-07-18T07:32:43;22.00;47.10
20487;DHT22;10402;49.012;8.370;2022-07-18T07:35:10;22.10;47.00
20487;DHT22;10402;49.012;8.370;2022-07-18T07:37:40;22.20;46.80
20487;DHT22;10402;49.012;8.370;2022-07-18T07:40:07;22.30;46.70
20487;DHT22;10402;49.012;8.370;2022-07-18T07:42:34;22.40;46.60
20487;DHT22;10402;49.012;8.370;2022-07-18T07:45:00;22.50;46.30
20487;DHT22;10402;49.012;8.370;2022-07-18T07:47:25;22.50;46.30
20487;DHT22;10402;49.012;8.370;2022-07-18T07:49:51;22.60;46.40
20487;DHT22;10402;49.012;8.370;2022-07-18T07:52:17;22.70;46.20
20487;DHT22;10402;49.012;8.370;2022-07-18T07:54:44;22.80;46.10
20487;DHT22;10402;49.012;8.370;2022-07-18T07:57:13;22.80;46.00
20487;DHT22;10402;49.012;8.370;2022-07-18T07:59:39;22.90;45.80
20487;DHT22;10402;49.012;8.370;2022-07-18T08:02:04;23.00;45.80
20487;DHT22;10402;49.012;8.370;2022-07-18T08:04:30;23.10;45.70
20487;DHT22;10402;49.012;8.370;2022-07-18T08:06:56;23.20;45.60
20487;DHT22;10402;49.012;8.370;2022-07-18T08:09:21;23.20;45.40
20487;DHT22;10402;49.012;8.370;2022-07-18T08:11:47;23.30;45.30
20487;DHT22;10402;49.012;8.370;2022-07-18T08:14:13;23.30;45.10
20487;DHT22;10402;49.012;8.370;2022-07-18T08:16:38;23.40;45.10
20487;DHT22;10402;49.012;8.370;2022-07-18T08:19:04;23.50;45.10
20487;DHT22;10402;49.012;8.370;2022-07-18T08:21:30;23.60;45.00
20487;DHT22;10402;49.012;8.370;2022-07-18T08:23:55;23.60;44.90
20487;DHT22;10402;49.012;8.370;2022-07-18T08:26:21;23.70;44.90
20487;DHT22;10402;49.012;8.370;2022-07-18T08:28:46;23.80;44.90
20487;DHT22;10402;49.012;8.370;2022-07-18T08:31:13;23.90;44.80
20487;DHT22;10402;49.012;8.370;2022-07-18T08:33:38;24.00;44.70
20487;DHT22;10402;49.012;8.370;2022-07-18T08:36:04;24.10;44.40
20487;DHT22;10402;49.012;8.370;2022-07-18T08:38:30;24.10;44.20
20487;DHT22;10402;49.012;8.370;2022-07-18T08:40:56;24.20;44.30
20487;DHT22;10402;49.012;8.370;2022-07-18T08:43:24;24.30;44.30
20487;DHT22;10402;49.012;8.370;2022-07-18T08:45:56;24.30;44.20
20487;DHT22;10402;49.012;8.370;2022-07-18T08:48:22;24.40;44.10
20487;DHT22;10402;49.012;8.370;2022-07-18T08:50:49;24.50;44.00
20487;DHT22;10402;49.012;8.370;2022-07-18T08:53:16;24.60;43.90
20487;DHT22;10402;49.012;8.370;2022-07-18T08:55:43;24.60;43.80
20487;DHT22;10402;49.012;8.370;2022-07-18T08:58:09;24.70;43.80
20487;DHT22;10402;49.012;8.370;2022-07-18T09:00:37;24.80;43.70
20487;DHT22;10402;49.012;8.370;2022-07-18T09:03:03;24.90;43.50
20487;DHT22;10402;49.012;8.370;2022-07-18T09:05:30;25.00;43.40
20487;DHT22;10402;49.012;8.370;2022-07-18T09:08:14;25.10;43.30
20487;DHT22;10402;49.012;8.370;2022-07-18T09:10:58;25.10;43.20
20487;DHT22;10402;49.012;8.370;2022-07-18T09:13:39;25.30;43.70
20487;DHT22;10402;49.012;8.370;2022-07-18T09:16:09;25.40;42.90
20487;DHT22;10402;49.012;8.370;2022-07-18T09:18:45;25.40;42.70
20487;DHT22;10402;49.012;8.370;2022-07-18T09:21:14;25.60;42.80
20487;DHT22;10402;49.012;8.370;2022-07-18T09:23:44;25.60;42.40
20487;DHT22;10402;49.012;8.370;2022-07-18T09:26:10;25.70;42.10
20487;DHT22;10402;49.012;8.370;2022-07-18T09:28:50;25.80;42.00
20487;DHT22;10402;49.012;8.370;2022-07-18T09:31:20;25.90;42.10
20487;DHT22;10402;49.012;8.370;2022-07-18T09:33:53;26.00;42.00
20487;DHT22;10402;49.012;8.370;2022-07-18T09:36:19;26.10;42.50
20487;DHT22;10402;49.012;8.370;2022-07-18T09:38:45;26.20;41.60
20487;DHT22;10402;49.012;8.370;2022-07-18T09:41:11;26.20;41.50
20487;DHT22;10402;49.012;8.370;2022-07-18T09:43:38;26.30;41.50
20487;DHT22;10402;49.012;8.370;2022-07-18T09:46:04;26.40;41.50
20487;DHT22;10402;49.012;8.370;2022-07-18T09:48:30;26.50;41.40
20487;DHT22;10402;49.012;8.370;2022-07-18T09:51:01;26.60;41.10
20487;DHT22;10402;49.012;8.370;2022-07-18T09:53:35;26.70;40.90
20487;DHT22;10402;49.012;8.370;2022-07-18T09:56:09;26.70;40.80
20487;DHT22;10402;49.012;8.370;2022-07-18T09:58:38;26.80;40.80
20487;DHT22;10402;49.012;8.370;2022-07-18T10:01:08;26.90;40.60
20487;DHT22;10402;49.012;8.370;2022-07-18T10:03:34;26.90;40.40
20487;DHT22;10402;49.012;8.370;2022-07-18T10:06:00;27.00;40.30
20487;DHT22;10402;49.012;8.370;2022-07-18T10:08:31;27.00;40.10
20487;DHT22;10402;49.012;8.370;2022-07-18T10:10:59;27.10;40.20
20487;DHT22;10402;49.012;8.370;2022-07-18T10:13:26;27.20;40.20
20487;DHT22;10402;49.012;8.370;2022-07-18T10:15:52;27.30;40.10
20487;DHT22;10402;49.012;8.370;2022-07-18T10:18:20;27.30;39.80
20487;DHT22;10402;49.012;8.370;2022-07-18T10:20:55;27.40;39.80
20487;DHT22;10402;49.012;8.370;2022-07-18T10:23:25;27.50;39.80
20487;DHT22;10402;49.012;8.370;2022-07-18T10:28:36;27.60;39.60
20487;DHT22;10402;49.012;8.370;2022-07-18T10:33:52;27.80;39.00
20487;DHT22;10402;49.012;8.370;2022-07-18T10:36:19;27.80;39.00
20487;DHT22;10402;49.012;8.370;2022-07-18T10:39:15;27.90;38.90
20487;DHT22;10402;49.012;8.370;2022-07-18T10:47:09;28.00;38.80
20487;DHT22;10402;49.012;8.370;2022-07-18T10:57:42;28.10;38.50
20487;DHT22;10402;49.012;8.370;2022-07-18T11:00:14;28.20;38.40
20487;DHT22;10402;49.012;8.370;2022-07-18T11:02:47;28.30;38.40
20487;DHT22;10402;49.012;8.370;2022-07-18T11:23:43;28.50;37.80
20487;DHT22;10402;49.012;8.370;2022-07-18T11:26:18;28.50;37.60
20487;DHT22;10402;49.012;8.370;2022-07-18T11:28:46;28.70;37.40
20487;DHT22;10402;49.012;8.370;2022-07-18T11:31:12;28.70;37.20
20487;DHT22;10402;49.012;8.370;2022-07-18T11:33:40;28.80;37.00
20487;DHT22;10402;49.012;8.370;2022-07-18T11:38:34;29.00;37.00
20487;DHT22;10402;49.012;8.370;2022-07-18T11:41:02;29.10;36.70
20487;DHT22;10402;49.012;8.370;2022-07-18T11:43:28;29.10;36.60
20487;DHT22;10402;49.012;8.370;2022-07-18T11:46:05;29.10;36.60
20487;DHT22;10402;49.012;8.370;2022-07-18T11:48:32;29.10;36.70
20487;DHT22;10402;49.012;8.370;2022-07-18T11:50:58;29.10;36.60
20487;DHT22;10402;49.012;8.370;2022-07-18T11:53:24;29.10;36.70
20487;DHT22;10402;49.012;8.370;2022-07-18T11:55:50;29.10;36.50
20487;DHT22;10402;49.012;8.370;2022-07-18T11:58:18;29.20;36.40
20487;DHT22;10402;49.012;8.370;2022-07-18T12:00:44;29.30;36.10
20487;DHT22;10402;49.012;8.370;2022-07-18T12:03:19;29.40;35.90
20487;DHT22;10402;49.012;8.370;2022-07-18T12:05:46;29.50;35.90
20487;DHT22;10402;49.012;8.370;2022-07-18T12:08:36;29.50;35.50
20487;DHT22;10402;49.012;8.370;2022-07-18T12:11:17;29.60;35.50
20487;DHT22;10402;49.012;8.370;2022-07-18T12:13:56;29.60;35.30
20487;DHT22;10402;49.012;8.370;2022-07-18T12:16:27;29.60;35.10
20487;DHT22;10402;49.012;8.370;2022-07-18T12:18:58;29.70;35.00
20487;DHT22;10402;49.012;8.370;2022-07-18T12:21:24;29.70;34.90
20487;DHT22;10402;49.012;8.370;2022-07-18T12:23:50;29.70;34.90
20487;DHT22;10402;49.012;8.370;2022-07-18T12:26:28;29.80;34.80
20487;DHT22;10402;49.012;8.370;2022-07-18T12:29:05;29.90;34.50
20487;DHT22;10402;49.012;8.370;2022-07-18T12:31:42;30.00;34.20
20487;DHT22;10402;49.012;8.370;2022-07-18T12:34:15;30.00;34.00
20487;DHT22;10402;49.012;8.370;2022-07-18T12:36:50;30.10;33.80
20487;DHT22;10402;49.012;8.370;2022-07-18T12:39:33;30.20;33.80
20487;DHT22;10402;49.012;8.370;2022-07-18T12:42:00;30.20;33.70
20487;DHT22;10402;49.012;8.370;2022-07-18T12:44:27;30.20;33.60
20487;DHT22;10402;49.012;8.370;2022-07-18T12:46:53;30.20;33.20
20487;DHT22;10402;49.012;8.370;2022-07-18T12:49:19;30.30;32.60
20487;DHT22;10402;49.012;8.370;2022-07-18T12:51:45;30.30;32.60
20487;DHT22;10402;49.012;8.370;2022-07-18T12:54:11;30.30;32.90
20487;DHT22;10402;49.012;8.370;2022-07-18T12:56:36;30.30;33.00
20487;DHT22;10402;49.012;8.370;2022-07-18T12:59:02;30.30;32.90
20487;DHT22;10402;49.012;8.370;2022-07-18T13:01:28;30.40;33.00
20487;DHT22;10402;49.012;8.370;2022-07-18T13:03:54;30.50;32.70
20487;DHT22;10402;49.012;8.370;2022-07-18T13:06:19;30.50;32.30
20487;DHT22;10402;49.012;8.370;2022-07-18T13:08:45;30.50;32.50
20487;DHT22;10402;49.012;8.370;2022-07-18T13:11:10;30.50;32.10
20487;DHT22;10402;49.012;8.370;2022-07-18T13:13:36;30.60;32.10
20487;DHT22;10402;49.012;8.370;2022-07-18T13:16:02;30.60;32.00
20487;DHT22;10402;49.012;8.370;2022-07-18T13:18:27;30.60;32.00
20487;DHT22;10402;49.012;8.370;2022-07-18T13:20:53;30.70;32.00
20487;DHT22;10402;49.012;8.370;2022-07-18T13:23:18;30.70;32.00
20487;DHT22;10402;49.012;8.370;2022-07-18T13:25:44;30.70;31.90
20487;DHT22;10402;49.012;8.370;2022-07-18T13:28:10;30.70;32.00
20487;DHT22;10402;49.012;8.370;2022-07-18T13:30:36;30.80;31.70
20487;DHT22;10402;49.012;8.370;2022-07-18T13:33:03;30.80;32.20
20487;DHT22;10402;49.012;8.370;2022-07-18T13:35:29;30.80;31.60
20487;DHT22;10402;49.012;8.370;2022-07-18T13:37:55;30.80;31.60
20487;DHT22;10402;49.012;8.370;2022-07-18T13:40:20;30.80;31.50
20487;DHT22;10402;49.012;8.370;2022-07-18T13:42:46;30.80;31.40
20487;DHT22;10402;49.012;8.370;2022-07-18T13:45:12;30.80;31.40
20487;DHT22;10402;49.012;8.370;2022-07-18T13:47:39;30.90;31.00
20487;DHT22;10402;49.012;8.370;2022-07-18T13:50:07;30.90;31.10
20487;DHT22;10402;49.012;8.370;2022-07-18T13:52:33;30.90;31.20
20487;DHT22;10402;49.012;8.370;2022-07-18T13:54:59;30.90;31.20
20487;DHT22;10402;49.012;8.370;2022-07-18T13:57:25;30.90;31.20
20487;DHT22;10402;49.012;8.370;2022-07-18T13:59:50;30.90;31.20
20487;DHT22;10402;49.012;8.370;2022-07-18T14:02:16;31.00;31.20
20487;DHT22;10402;49.012;8.370;2022-07-18T14:04:42;31.00;31.10
20487;DHT22;10402;49.012;8.370;2022-07-18T14:07:08;31.10;30.90
20487;DHT22;10402;49.012;8.370;2022-07-18T14:09:33;31.10;31.10
20487;DHT22;10402;49.012;8.370;2022-07-18T14:11:59;31.20;30.90
20487;DHT22;10402;49.012;8.370;2022-07-18T14:14:25;31.20;30.90
20487;DHT22;10402;49.012;8.370;2022-07-18T14:16:50;31.20;30.80
20487;DHT22;10402;49.012;8.370;2022-07-18T14:19:17;31.20;30.80
20487;DHT22;10402;49.012;8.370;2022-07-18T14:21:45;31.20;30.70
20487;DHT22;10402;49.012;8.370;2022-07-18T14:24:10;31.30;30.70
20487;DHT22;10402;49.012;8.370;2022-07-18T14:26:36;31.30;30.60
20487;DHT22;10402;49.012;8.370;2022-07-18T14:29:02;31.40;30.60
20487;DHT22;10402;49.012;8.370;2022-07-18T14:31:28;31.40;30.40
20487;DHT22;10402;49.012;8.370;2022-07-18T14:33:53;31.40;30.30
20487;DHT22;10402;49.012;8.370;2022-07-18T14:36:19;31.40;30.40
20487;DHT22;10402;49.012;8.370;2022-07-18T14:38:44;31.40;30.40
20487;DHT22;10402;49.012;8.370;2022-07-18T14:41:11;31.40;30.30
20487;DHT22;10402;49.012;8.370;2022-07-18T14:43:36;31.40;30.30
20487;DHT22;10402;49.012;8.370;2022-07-18T14:46:02;31.50;30.20
20487;DHT22;10402;49.012;8.370;2022-07-18T14:48:27;31.50;30.20
20487;DHT22;10402;49.012;8.370;2022-07-18T14:50:53;31.50;30.20
20487;DHT22;10402;49.012;8.370;2022-07-18T14:53:18;31.60;30.20
20487;DHT22;10402;49.012;8.370;2022-07-18T14:55:44;31.70;30.10
20487;DHT22;10402;49.012;8.370;2022-07-18T14:58:10;31.70;30.00
20487;DHT22;10402;49.012;8.370;2022-07-18T15:00:35;31.70;30.00
20487;DHT22;10402;49.012;8.370;2022-07-18T15:03:01;31.70;30.00
20487;DHT22;10402;49.012;8.370;2022-07-18T15:05:27;31.80;29.80
20487;DHT22;10402;49.012;8.370;2022-07-18T15:07:52;31.80;29.80
20487;DHT22;10402;49.012;8.370;2022-07-18T15:10:18;31.80;29.70
20487;DHT22;10402;49.012;8.370;2022-07-18T15:12:43;31.80;29.70
20487;DHT22;10402;49.012;8.370;2022-07-18T15:15:09;31.90;29.60
20487;DHT22;10402;49.012;8.370;2022-07-18T15:17:35;31.90;29.80
20487;DHT22;10402;49.012;8.370;2022-07-18T15:20:00;31.90;29.80
20487;DHT22;10402;49.012;8.370;2022-07-18T15:22:26;31.80;29.80
20487;DHT22;10402;49.012;8.370;2022-07-18T15:24:52;31.80;29.80
20487;DHT22;10402;49.012;8.370;2022-07-18T15:27:18;31.80;29.90
20487;DHT22;10402;49.012;8.370;2022-07-18T15:29:43;31.80;29.90
20487;DHT22;10402;49.012;8.370;2022-07-18T15:32:09;31.80;29.70
20487;DHT22;10402;49.012;8.370;2022-07-18T15:34:36;31.80;29.70
20487;DHT22;10402;49.012;8.370;2022-07-18T15:37:01;31.90;29.60
20487;DHT22;10402;49.012;8.370;2022-07-18T15:39:27;31.90;29.70
20487;DHT22;10402;49.012;8.370;2022-07-18T15:41:52;32.00;30.00
20487;DHT22;10402;49.012;8.370;2022-07-18T15:44:18;32.00;29.50
20487;DHT22;10402;49.012;8.370;2022-07-18T15:46:44;32.00;29.50
20487;DHT22;10402;49.012;8.370;2022-07-18T15:49:09;32.10;29.50
20487;DHT22;10402;49.012;8.370;2022-07-18T15:51:35;32.10;29.50
20487;DHT22;10402;49.012;8.370;2022-07-18T15:54:01;32.10;29.60
20487;DHT22;10402;49.012;8.370;2022-07-18T15:56:28;32.10;29.70
20487;DHT22;10402;49.012;8.370;2022-07-18T15:58:53;32.10;29.60
20487;DHT22;10402;49.012;8.370;2022-07-18T16:01:19;32.10;29.50
20487;DHT22;10402;49.012;8.370;2022-07-18T16:03:46;32.10;29.50
20487;DHT22;10402;49.012;8.370;2022-07-18T16:06:12;32.10;29.60
20487;DHT22;10402;49.012;8.370;2022-07-18T16:08:37;32.10;29.60
20487;DHT22;10402;49.012;8.370;2022-07-18T16:11:03;32.10;29.60